Time;durP1;ratioP1;P1;durP2;ratioP2;P2;SDS_P1;SDS_P2;PMS_P1;PMS_P2;Temp;Humidity;BMP_temperature;BMP_pressure;BME280_temperature;BME280_humidity;BME280_pressure;Samples;Min_cycle;Max_cycle;Signal;HPM_P1;HPM_P2
2022/09/20 00:01:09;;;;;;;6.80;2.10;;;11.50;99.90;;;;;;5090693;28;20812;-66
2022/09/20 00:03:39;;;;;;;5.53;2.00;;;11.50;99.90;;;;;;5091091;28;20389;-65
2022/09/20 00:06:07;;;;;;;7.75;2.38;;;11.50;99.90;;;;;;5090497;28;20678;-65
2022/09/20 00:08:34;;;;;;;6.05;2.45;;;11.50;99.90;;;;;;5089114;28;20382;-65
2022/09/20 00:11:01;;;;;;;5.63;2.37;;;11.40;99.90;;;;;;5088405;28;20401;-65
2022/09/20 00:13:28;;;;;;;6.57;2.08;;;11.40;99.90;;;;;;5087043;28;20511;-65
2022/09/20 00:15:53;;;;;;;7.13;2.70;;;11.40;99.90;;;;;;5086050;28;20778;-65
2022/09/20 00:18:19;;;;;;;6.47;2.40;;;11.30;99.90;;;;;;5086286;28;20451;-66
2022/09/20 00:20:46;;;;;;;9.35;2.30;;;11.40;99.90;;;;;;5086055;28;20786;-66
2022/09/20 00:23:12;;;;;;;10.15;3.00;;;11.30;99.90;;;;;;5087943;28;20823;-66
2022/09/20 00:25:38;;;;;;;10.70;2.20;;;11.40;99.90;;;;;;5087067;28;20792;-66
2022/09/20 00:28:04;;;;;;;10.57;2.40;;;11.30;99.90;;;;;;5090247;28;20979;-67
2022/09/20 00:30:31;;;;;;;8.85;2.53;;;11.30;99.90;;;;;;5089099;28;20405;-66
2022/09/20 00:32:57;;;;;;;9.27;2.55;;;11.30;99.90;;;;;;5089711;28;20789;-65
2022/09/20 00:35:22;;;;;;;8.63;2.33;;;11.30;99.90;;;;;;5090381;28;20394;-65
2022/09/20 00:37:48;;;;;;;5.97;2.17;;;11.20;99.90;;;;;;5091255;28;20389;-65
2022/09/20 00:40:22;;;;;;;11.60;2.92;;;11.20;99.90;;;;;;5092642;28;20386;-65
2022/09/20 00:42:48;;;;;;;7.37;2.20;;;11.20;99.90;;;;;;5092008;28;20489;-65
2022/09/20 00:45:20;;;;;;;10.67;2.90;;;11.20;99.90;;;;;;5074026;28;20728;-65
2022/09/20 00:47:56;;;;;;;8.82;3.00;;;11.20;99.90;;;;;;5088122;28;20665;-65
2022/09/20 00:50:42;;;;;;;9.02;2.92;;;11.20;99.90;;;;;;5093073;28;20506;-65
2022/09/20 00:53:10;;;;;;;9.60;2.78;;;11.20;99.90;;;;;;5095307;28;20396;-65
2022/09/20 00:55:44;;;;;;;11.68;2.97;;;11.10;99.90;;;;;;5093145;28;20406;-65
2022/09/20 00:58:11;;;;;;;5.82;2.15;;;11.10;99.90;;;;;;5092541;28;20442;-65
2022/09/20 01:00:37;;;;;;;8.07;2.87;;;11.10;99.90;;;;;;5091600;28;20417;-66
2022/09/20 01:03:08;;;;;;;9.13;2.35;;;11.20;99.90;;;;;;5092258;28;20477;-65
2022/09/20 01:05:36;;;;;;;8.73;3.00;;;11.10;99.90;;;;;;5093168;28;20397;-66
2022/09/20 01:08:02;;;;;;;8.07;2.72;;;11.20;99.90;;;;;;5093484;28;20392;-66
2022/09/20 01:10:28;;;;;;;7.88;2.40;;;11.10;99.90;;;;;;5092694;28;20496;-65
2022/09/20 01:12:54;;;;;;;7.43;2.30;;;11.10;99.90;;;;;;5092932;28;20676;-66
2022/09/20 01:15:22;;;;;;;7.28;2.55;;;11.10;99.90;;;;;;5095140;28;20394;-65
2022/09/20 01:17:50;;;;;;;10.80;3.10;;;11.10;99.90;;;;;;5093889;28;20390;-66
2022/09/20 01:20:32;;;;;;;11.00;2.53;;;11.10;99.90;;;;;;5092747;28;20496;-66
2022/09/20 01:23:26;;;;;;;10.37;2.80;;;11.00;99.90;;;;;;5093786;28;20501;-65
2022/09/20 01:26:30;;;;;;;11.15;2.80;;;11.00;99.90;;;;;;5082414;28;20812;-66
2022/09/20 01:29:37;;;;;;;13.38;2.95;;;11.00;99.90;;;;;;5031164;28;20582;-65
2022/09/20 01:32:08;;;;;;;7.50;2.30;;;11.00;99.90;;;;;;5017323;28;20415;-65
2022/09/20 01:34:36;;;;;;;7.53;2.35;;;11.00;99.90;;;;;;5076898;28;20382;-66
2022/09/20 01:37:10;;;;;;;9.33;2.23;;;11.00;99.90;;;;;;5096049;28;20537;-66
2022/09/20 01:40:00;;;;;;;4.63;2.00;;;11.00;99.90;;;;;;5094275;28;20374;-66
2022/09/20 01:42:32;;;;;;;8.10;2.83;;;11.00;99.90;;;;;;5093014;28;20386;-66
2022/09/20 01:45:12;;;;;;;6.78;2.20;;;11.00;99.90;;;;;;5093480;28;20398;-65
2022/09/20 01:48:02;;;;;;;7.13;2.47;;;11.00;99.90;;;;;;5092789;28;20789;-65
2022/09/20 01:50:34;;;;;;;10.85;3.05;;;11.00;99.90;;;;;;5092755;28;20402;-65
2022/09/20 01:53:02;;;;;;;10.10;2.92;;;10.90;99.90;;;;;;5094635;28;20418;-65
2022/09/20 01:56:04;;;;;;;7.53;2.47;;;10.80;99.90;;;;;;5095916;28;20386;-65
2022/09/20 01:58:57;;;;;;;9.05;2.80;;;10.80;99.90;;;;;;5096453;28;20808;-65
2022/09/20 02:01:53;;;;;;;5.30;1.98;;;10.80;99.90;;;;;;5093820;28;20378;-65
2022/09/20 02:05:04;;;;;;;6.53;2.20;;;10.80;99.90;;;;;;5094726;28;20381;-65
2022/09/20 02:07:42;;;;;;;8.07;2.17;;;10.80;99.90;;;;;;5095323;28;20459;-65
2022/09/20 02:10:17;;;;;;;6.63;2.65;;;10.80;99.90;;;;;;5094692;28;20661;-65
2022/09/20 02:12:59;;;;;;;6.88;2.60;;;10.80;99.90;;;;;;5091998;28;20462;-65
2022/09/20 02:15:37;;;;;;;7.80;2.33;;;10.70;99.90;;;;;;5094612;28;20816;-65
2022/09/20 02:18:32;;;;;;;5.15;2.03;;;10.70;99.90;;;;;;5094756;28;20393;-65
2022/09/20 02:21:08;;;;;;;6.78;2.50;;;10.70;99.90;;;;;;5093860;28;20681;-65
2022/09/20 02:23:47;;;;;;;6.38;2.15;;;10.70;99.90;;;;;;5091707;28;20381;-65
2022/09/20 02:26:45;;;;;;;6.30;2.40;;;10.60;99.90;;;;;;5094438;28;20378;-65
2022/09/20 02:29:19;;;;;;;7.55;2.50;;;10.60;99.90;;;;;;5092820;28;20402;-65
2022/09/20 02:32:17;;;;;;;7.97;2.22;;;10.60;99.90;;;;;;5091880;28;20401;-65
2022/09/20 02:35:03;;;;;;;6.35;2.10;;;10.60;99.90;;;;;;5081410;28;20382;-65
2022/09/20 02:38:05;;;;;;;7.47;2.63;;;10.60;99.90;;;;;;5092509;28;20432;-65
2022/09/20 02:40:49;;;;;;;7.72;2.78;;;10.50;99.90;;;;;;5094621;28;20742;-66
2022/09/20 02:43:32;;;;;;;9.57;2.85;;;10.40;99.90;;;;;;5093976;28;20416;-65
2022/09/20 02:46:21;;;;;;;7.68;2.67;;;10.40;99.90;;;;;;5093687;28;20389;-65
2022/09/20 02:49:10;;;;;;;6.60;2.42;;;10.40;99.90;;;;;;5094328;28;20386;-65
2022/09/20 02:51:35;;;;;;;11.15;3.50;;;10.40;99.90;;;;;;5096147;28;20463;-65
2022/09/20 02:54:17;;;;;;;8.02;2.65;;;10.30;99.90;;;;;;5094105;28;20409;-65
2022/09/20 02:56:53;;;;;;;7.63;2.40;;;10.30;99.90;;;;;;5094954;28;20385;-65
2022/09/20 02:59:21;;;;;;;8.23;2.60;;;10.30;99.90;;;;;;5094240;28;20403;-65
2022/09/20 03:01:59;;;;;;;7.78;2.50;;;10.30;99.90;;;;;;5095321;28;20391;-65
2022/09/20 03:04:50;;;;;;;5.93;2.37;;;10.30;99.90;;;;;;5094686;28;20463;-65
2022/09/20 03:07:29;;;;;;;8.00;2.95;;;10.30;99.90;;;;;;5093619;28;20705;-65
2022/09/20 03:10:19;;;;;;;6.18;2.20;;;10.20;99.90;;;;;;5091561;28;20616;-65
2022/09/20 03:13:10;;;;;;;6.28;2.47;;;10.20;99.90;;;;;;5091820;28;20812;-65
2022/09/20 03:15:53;;;;;;;7.75;2.90;;;10.20;99.90;;;;;;5091672;28;20465;-65
2022/09/20 03:18:33;;;;;;;8.03;2.57;;;10.10;99.90;;;;;;5093287;28;20386;-65
2022/09/20 03:21:33;;;;;;;7.18;2.75;;;10.10;99.90;;;;;;5093262;28;20681;-65
2022/09/20 03:24:27;;;;;;;5.65;2.28;;;10.10;99.90;;;;;;5092087;28;20438;-65
2022/09/20 03:27:27;;;;;;;6.28;2.53;;;10.10;99.90;;;;;;5093702;28;20377;-65
2022/09/20 03:30:00;;;;;;;5.03;2.40;;;10.10;99.90;;;;;;5093039;28;21000;-65
2022/09/20 03:32:44;;;;;;;7.50;2.38;;;10.10;99.90;;;;;;5092286;28;20474;-65
2022/09/20 03:35:21;;;;;;;6.17;2.13;;;10.00;99.90;;;;;;5093107;28;20390;-66
2022/09/20 03:38:08;;;;;;;6.97;2.42;;;10.00;99.90;;;;;;5089315;28;20808;-65
2022/09/20 03:41:05;;;;;;;5.60;2.38;;;10.00;99.90;;;;;;5090221;28;20390;-65
2022/09/20 03:43:55;;;;;;;5.20;2.25;;;9.90;99.90;;;;;;5089412;28;20673;-65
2022/09/20 03:46:28;;;;;;;5.47;2.17;;;9.90;99.90;;;;;;5088604;28;20401;-65
2022/09/20 03:49:01;;;;;;;4.80;2.17;;;9.90;99.90;;;;;;5090041;28;20682;-65
2022/09/20 03:51:53;;;;;;;6.20;2.35;;;9.90;99.90;;;;;;5092901;28;20898;-65
2022/09/20 03:54:57;;;;;;;5.70;1.93;;;9.90;99.90;;;;;;5092866;28;20916;-66
2022/09/20 03:58:05;;;;;;;3.53;2.00;;;9.90;99.90;;;;;;5094376;28;20370;-65
2022/09/20 04:00:56;;;;;;;5.57;2.10;;;9.90;99.90;;;;;;5061175;28;20460;-65
2022/09/20 04:03:45;;;;;;;3.75;2.00;;;9.90;99.90;;;;;;5091355;28;20451;-65
2022/09/20 04:06:36;;;;;;;3.40;1.90;;;9.90;99.90;;;;;;5092039;28;20401;-65
2022/09/20 04:09:38;;;;;;;4.95;2.15;;;9.90;99.90;;;;;;5091200;28;20386;-65
2022/09/20 04:12:34;;;;;;;3.58;1.88;;;9.90;99.90;;;;;;5088816;28;20409;-65
2022/09/20 04:15:12;;;;;;;4.35;2.42;;;9.90;99.90;;;;;;5088785;28;20886;-66
2022/09/20 04:18:20;;;;;;;3.97;2.05;;;9.80;99.90;;;;;;5088429;28;20389;-66
2022/09/20 04:20:54;;;;;;;4.72;2.30;;;9.80;99.90;;;;;;5070669;28;20378;-66
2022/09/20 04:23:38;;;;;;;4.47;2.00;;;9.80;99.90;;;;;;5086074;28;20382;-67
2022/09/20 04:26:04;;;;;;;7.53;2.60;;;9.80;99.90;;;;;;5087305;28;20395;-66
2022/09/20 04:28:41;;;;;;;4.77;2.27;;;9.70;99.90;;;;;;5086864;28;20646;-66
2022/09/20 04:31:28;;;;;;;3.80;1.92;;;9.70;99.90;;;;;;5085270;28;20431;-66
2022/09/20 04:33:56;;;;;;;4.80;2.00;;;9.70;99.90;;;;;;5085421;28;20417;-66
2022/09/20 04:36:43;;;;;;;4.22;2.00;;;9.70;99.90;;;;;;5086424;28;20469;-65
2022/09/20 04:39:29;;;;;;;4.18;1.65;;;9.70;99.90;;;;;;5086907;28;20377;-66
2022/09/20 04:42:35;;;;;;;4.60;2.17;;;9.70;99.90;;;;;;5087340;28;20374;-66
2022/09/20 04:45:20;;;;;;;4.95;2.20;;;9.70;99.90;;;;;;5086347;28;20394;-66
2022/09/20 04:48:16;;;;;;;3.75;2.13;;;9.70;99.90;;;;;;5087904;28;20484;-66
2022/09/20 04:51:13;;;;;;;5.50;2.20;;;9.60;99.90;;;;;;5088596;28;21114;-66
2022/09/20 04:54:16;;;;;;;4.05;1.80;;;9.60;99.90;;;;;;5086212;28;20468;-66
2022/09/20 04:57:14;;;;;;;3.60;2.08;;;9.60;99.90;;;;;;5086316;28;20580;-66
2022/09/20 05:00:08;;;;;;;3.72;2.10;;;9.60;99.90;;;;;;5070048;28;20489;-66
2022/09/20 05:02:58;;;;;;;5.47;2.10;;;9.60;99.90;;;;;;5082009;28;20386;-66
2022/09/20 05:05:51;;;;;;;3.50;1.90;;;9.60;99.90;;;;;;5082499;28;20378;-66
2022/09/20 05:08:51;;;;;;;4.22;1.90;;;9.60;99.90;;;;;;5080513;28;20378;-66
2022/09/20 05:11:41;;;;;;;6.80;2.13;;;9.60;99.90;;;;;;5082192;28;20405;-66
2022/09/20 05:14:28;;;;;;;3.88;2.00;;;9.60;99.90;;;;;;5082547;28;20390;-66
2022/09/20 05:17:25;;;;;;;4.88;2.15;;;9.60;99.90;;;;;;5081334;28;20480;-66
2022/09/20 05:20:03;;;;;;;3.97;2.20;;;9.60;99.90;;;;;;5081323;28;20700;-66
2022/09/20 05:23:06;;;;;;;4.40;2.13;;;9.60;99.90;;;;;;5079782;28;20393;-66
2022/09/20 05:25:37;;;;;;;5.63;2.38;;;9.50;99.90;;;;;;5081561;28;20382;-66
2022/09/20 05:28:14;;;;;;;3.93;2.30;;;9.50;99.90;;;;;;5081500;28;20824;-66
2022/09/20 05:31:22;;;;;;;3.45;2.40;;;9.60;99.90;;;;;;5081642;28;20402;-66
2022/09/20 05:34:10;;;;;;;3.72;2.15;;;9.50;99.90;;;;;;5042848;28;21016;-66
2022/09/20 05:36:51;;;;;;;3.90;2.17;;;9.50;99.90;;;;;;5087466;28;20438;-66
2022/09/20 05:39:30;;;;;;;4.55;1.92;;;9.50;99.90;;;;;;5088512;28;20823;-66
2022/09/20 05:42:02;;;;;;;7.55;2.58;;;9.50;99.90;;;;;;5089302;28;20388;-66
2022/09/20 05:44:39;;;;;;;6.15;2.30;;;9.40;99.90;;;;;;5089914;28;20503;-66
2022/09/20 05:47:04;;;;;;;4.05;2.70;;;9.50;99.90;;;;;;5086204;28;20790;-66
2022/09/20 05:49:57;;;;;;;7.35;2.80;;;9.50;99.90;;;;;;5086504;28;20396;-66
2022/09/20 05:52:36;;;;;;;5.18;2.40;;;9.50;99.90;;;;;;5084575;28;20398;-66
2022/09/20 05:55:19;;;;;;;4.82;2.53;;;9.50;99.90;;;;;;5084079;28;20382;-66
2022/09/20 05:57:55;;;;;;;5.07;2.60;;;9.50;99.90;;;;;;5082083;28;20397;-66
2022/09/20 06:00:26;;;;;;;6.53;2.35;;;9.50;99.90;;;;;;5082854;28;20394;-66
2022/09/20 06:03:17;;;;;;;4.10;2.28;;;9.50;99.90;;;;;;5078830;28;20440;-66
2022/09/20 06:06:01;;;;;;;5.00;2.10;;;9.50;99.90;;;;;;5079162;28;20402;-66
2022/09/20 06:08:39;;;;;;;7.90;2.63;;;9.60;99.90;;;;;;5076934;28;20466;-66
2022/09/20 06:11:37;;;;;;;6.28;2.63;;;9.60;99.90;;;;;;5074809;28;20562;-66
2022/09/20 06:14:26;;;;;;;3.03;2.15;;;9.60;99.90;;;;;;5072143;28;20757;-66
2022/09/20 06:17:10;;;;;;;3.90;2.40;;;9.60;99.90;;;;;;5073434;28;20390;-66
2022/09/20 06:19:58;;;;;;;4.95;2.10;;;9.60;99.90;;;;;;5074956;28;20770;-66
2022/09/20 06:22:29;;;;;;;4.20;1.70;;;9.70;99.90;;;;;;5072523;28;20525;-66
2022/09/20 06:25:07;;;;;;;5.53;2.20;;;9.80;99.90;;;;;;5073504;28;20785;-66
2022/09/20 06:27:41;;;;;;;5.47;2.08;;;9.80;99.90;;;;;;5074119;28;20647;-66
2022/09/20 06:30:23;;;;;;;5.03;2.23;;;9.80;99.90;;;;;;5073958;28;20442;-66
2022/09/20 06:32:58;;;;;;;6.00;2.58;;;9.90;99.90;;;;;;5076763;28;20382;-66
2022/09/20 06:35:30;;;;;;;5.05;2.00;;;9.90;99.90;;;;;;5079050;28;20564;-66
2022/09/20 06:41:38;;;;;;;3.38;2.00;;;10.00;99.90;;;;;;5016621;28;20901;-65
2022/09/20 06:44:05;;;;;;;6.38;2.30;;;10.00;99.90;;;;;;5000903;28;20406;-65
2022/09/20 06:46:33;;;;;;;5.50;2.15;;;10.00;99.90;;;;;;5065321;28;20773;-66
2022/09/20 06:48:59;;;;;;;5.60;2.08;;;10.10;99.90;;;;;;5082536;28;20389;-66
2022/09/20 06:51:27;;;;;;;6.45;2.60;;;10.10;99.90;;;;;;5081861;28;20507;-66
2022/09/20 06:53:54;;;;;;;4.93;2.20;;;10.20;99.90;;;;;;5083210;28;20824;-66
2022/09/20 06:56:25;;;;;;;4.35;2.03;;;10.20;99.90;;;;;;5083487;28;20374;-66
2022/09/20 06:58:51;;;;;;;3.38;1.98;;;10.30;99.90;;;;;;5079272;28;20426;-66
2022/09/20 07:01:17;;;;;;;3.28;1.98;;;10.30;99.90;;;;;;5076152;28;20510;-66
2022/09/20 07:03:43;;;;;;;3.92;1.65;;;10.40;99.90;;;;;;5078077;28;20857;-66
2022/09/20 07:06:09;;;;;;;5.28;2.30;;;10.50;99.90;;;;;;5075083;28;20429;-66
2022/09/20 07:08:35;;;;;;;6.73;2.07;;;10.50;99.90;;;;;;5073954;28;20703;-66
2022/09/20 07:11:11;;;;;;;6.03;2.67;;;10.50;99.90;;;;;;5076222;28;20603;-66
2022/09/20 07:13:36;;;;;;;5.15;2.35;;;10.50;99.90;;;;;;5077772;28;20541;-66
2022/09/20 07:16:04;;;;;;;4.25;2.10;;;10.60;99.90;;;;;;5078105;28;20429;-66
2022/09/20 07:18:31;;;;;;;5.40;2.42;;;10.60;99.90;;;;;;5078195;28;20811;-66
2022/09/20 07:20:59;;;;;;;7.50;2.73;;;10.70;99.90;;;;;;5074557;28;20786;-66
2022/09/20 07:23:26;;;;;;;8.23;2.90;;;10.70;99.90;;;;;;5076376;28;20389;-66
2022/09/20 07:25:52;;;;;;;6.50;3.75;;;10.70;99.90;;;;;;5077544;28;20484;-66
2022/09/20 07:28:21;;;;;;;6.50;4.47;;;10.80;99.90;;;;;;5075028;28;20593;-66
2022/09/20 07:30:46;;;;;;;11.55;6.05;;;10.70;99.90;;;;;;5075530;28;20847;-66
2022/09/20 07:33:18;;;;;;;10.27;6.50;;;10.80;99.90;;;;;;5075717;28;20998;-66
2022/09/20 07:35:45;;;;;;;13.98;6.45;;;10.80;99.90;;;;;;5078413;28;20373;-66
2022/09/20 07:38:11;;;;;;;12.18;11.13;;;10.80;99.90;;;;;;5075990;28;20522;-66
2022/09/20 07:40:37;;;;;;;15.40;14.23;;;10.90;99.90;;;;;;5074095;28;20462;-66
2022/09/20 07:43:02;;;;;;;21.45;19.70;;;10.90;99.90;;;;;;5076006;28;20386;-66
2022/09/20 07:45:29;;;;;;;15.60;12.85;;;11.00;99.90;;;;;;5074714;28;20951;-66
2022/09/20 07:47:57;;;;;;;17.05;15.55;;;11.00;99.90;;;;;;5073535;28;20377;-66
2022/09/20 07:50:23;;;;;;;14.60;13.40;;;11.10;99.90;;;;;;5070090;28;20641;-66
2022/09/20 07:52:49;;;;;;;17.63;16.27;;;11.10;99.90;;;;;;5072941;28;20420;-66
2022/09/20 07:55:14;;;;;;;29.17;26.80;;;11.20;99.90;;;;;;5071840;28;20558;-66
2022/09/20 07:57:40;;;;;;;33.63;31.40;;;11.20;99.90;;;;;;5072945;28;20753;-66
2022/09/20 08:00:08;;;;;;;45.40;42.17;;;11.30;99.90;;;;;;5070337;28;20491;-66
2022/09/20 08:02:33;;;;;;;61.13;56.83;;;11.30;99.90;;;;;;5068892;28;20603;-66
2022/09/20 08:05:00;;;;;;;64.40;60.37;;;11.40;99.90;;;;;;5070626;28;20390;-66
2022/09/20 08:07:25;;;;;;;55.90;52.67;;;11.40;99.90;;;;;;5067760;28;20557;-66
2022/09/20 08:09:52;;;;;;;41.28;38.60;;;11.50;99.90;;;;;;5069719;28;20580;-65
2022/09/20 08:12:18;;;;;;;48.15;45.40;;;11.50;99.90;;;;;;5069174;28;20423;-66
2022/09/20 08:14:44;;;;;;;67.97;64.28;;;11.50;99.90;;;;;;5067097;28;20382;-66
2022/09/20 08:17:10;;;;;;;112.93;106.80;;;11.50;99.90;;;;;;5070444;28;20404;-66
2022/09/20 08:19:38;;;;;;;57.50;53.95;;;11.60;99.90;;;;;;5070138;28;20611;-66
2022/09/20 08:22:05;;;;;;;64.10;60.15;;;11.60;99.90;;;;;;5070730;28;20516;-66
2022/09/20 08:24:31;;;;;;;69.05;65.30;;;11.60;99.90;;;;;;5072347;28;20373;-65
2022/09/20 08:26:58;;;;;;;78.90;74.30;;;11.70;99.90;;;;;;5071658;28;20386;-65
2022/09/20 08:29:24;;;;;;;97.07;91.70;;;11.70;99.90;;;;;;5061744;28;20399;-65
2022/09/20 08:31:51;;;;;;;187.02;176.27;;;11.70;99.90;;;;;;5061404;28;20762;-65
2022/09/20 08:34:17;;;;;;;100.88;94.93;;;11.80;99.90;;;;;;5058681;28;20383;-65
2022/09/20 08:36:45;;;;;;;136.20;128.60;;;11.70;99.90;;;;;;5056874;28;20490;-65
2022/09/20 08:39:12;;;;;;;128.35;121.55;;;11.80;99.90;;;;;;5058840;28;20775;-65
2022/09/20 08:41:44;;;;;;;136.13;128.93;;;11.90;99.90;;;;;;5057724;28;20431;-66
2022/09/20 08:44:23;;;;;;;94.35;89.30;;;12.00;99.90;;;;;;5059692;28;20399;-65
2022/09/20 08:47:01;;;;;;;87.55;82.93;;;12.00;99.90;;;;;;5057987;28;21092;-65
2022/09/20 08:49:29;;;;;;;136.80;129.40;;;12.10;99.90;;;;;;5059241;28;20506;-66
2022/09/20 08:51:57;;;;;;;87.90;83.20;;;12.10;99.90;;;;;;5059177;28;20411;-65
2022/09/20 08:54:24;;;;;;;89.63;84.78;;;12.20;99.90;;;;;;5061333;28;21144;-65
2022/09/20 08:56:51;;;;;;;131.25;124.00;;;12.30;99.90;;;;;;5061727;28;20418;-65
2022/09/20 08:59:19;;;;;;;114.30;107.88;;;12.30;99.90;;;;;;5060018;28;20403;-66
2022/09/20 09:01:50;;;;;;;133.90;126.00;;;12.40;99.90;;;;;;5058908;28;20387;-66
2022/09/20 09:04:22;;;;;;;106.87;100.67;;;12.40;99.90;;;;;;5063054;28;20405;-66
2022/09/20 09:06:50;;;;;;;158.93;149.65;;;12.40;99.90;;;;;;5061841;28;20395;-66
2022/09/20 09:09:22;;;;;;;142.20;134.02;;;12.40;99.90;;;;;;5063598;28;20462;-67
2022/09/20 09:11:49;;;;;;;78.93;74.32;;;12.50;99.90;;;;;;5067535;28;20815;-67
2022/09/20 09:17:16;;;;;;;86.57;81.65;;;12.60;99.90;;;;;;5067156;28;20657;-67
2022/09/20 09:19:55;;;;;;;90.25;85.35;;;12.70;99.90;;;;;;5066459;28;20379;-66
2022/09/20 09:22:25;;;;;;;118.50;111.63;;;12.70;99.90;;;;;;5065670;28;20396;-66
2022/09/20 09:25:19;;;;;;;113.47;107.38;;;12.70;99.90;;;;;;5068430;28;20386;-59
2022/09/20 09:27:51;;;;;;;97.63;92.30;;;12.80;99.90;;;;;;5068456;28;20379;-59
2022/09/20 09:30:21;;;;;;;130.50;123.13;;;12.90;99.90;;;;;;5064852;28;20399;-67
2022/09/20 09:32:47;;;;;;;129.75;122.38;;;13.00;99.90;;;;;;5064451;28;20840;-67
2022/09/20 09:35:24;;;;;;;57.27;53.87;;;13.00;99.90;;;;;;5061243;28;20531;-66
2022/09/20 09:38:00;;;;;;;53.72;50.42;;;12.90;99.90;;;;;;5056855;28;20583;-66
2022/09/20 09:40:28;;;;;;;59.17;55.50;;;12.90;99.90;;;;;;5053567;28;20486;-66
2022/09/20 09:42:57;;;;;;;84.00;79.03;;;13.10;99.90;;;;;;5052758;28;20464;-66
2022/09/20 09:45:27;;;;;;;74.80;70.40;;;13.20;99.90;;;;;;5054413;28;20738;-66
2022/09/20 09:47:54;;;;;;;115.45;108.97;;;13.20;99.90;;;;;;5055228;28;20898;-67
2022/09/20 09:50:29;;;;;;;78.00;73.97;;;13.30;99.90;;;;;;5055111;28;20379;-66
2022/09/20 09:53:01;;;;;;;107.35;101.63;;;13.30;99.90;;;;;;5054855;28;20396;-67
2022/09/20 09:55:46;;;;;;;68.53;64.63;;;13.40;99.90;;;;;;5057325;28;20437;-66
2022/09/20 09:58:26;;;;;;;101.30;95.45;;;13.40;99.90;;;;;;5055754;28;20391;-66
2022/09/20 10:00:53;;;;;;;80.50;75.82;;;13.40;99.90;;;;;;5056987;28;20380;-66
2022/09/20 10:03:37;;;;;;;99.32;93.75;;;13.40;99.90;;;;;;5058767;28;20391;-67
2022/09/20 10:06:24;;;;;;;78.43;74.07;;;13.50;99.90;;;;;;5057633;28;20800;-67
2022/09/20 10:09:06;;;;;;;29.38;27.42;;;13.60;99.90;;;;;;5057186;28;20427;-67
2022/09/20 10:11:57;;;;;;;79.38;74.47;;;13.60;99.90;;;;;;5057684;28;20464;-67
2022/09/20 10:14:35;;;;;;;136.05;128.27;;;13.60;99.90;;;;;;5055626;28;20388;-67
2022/09/20 10:17:30;;;;;;;93.05;88.15;;;13.60;99.90;;;;;;5056601;28;20790;-67
2022/09/20 10:20:14;;;;;;;71.78;67.88;;;13.70;99.90;;;;;;5055401;28;20402;-66
2022/09/20 10:23:18;;;;;;;130.05;122.80;;;13.90;99.90;;;;;;5056150;28;20718;-65
2022/09/20 10:26:32;;;;;;;214.63;203.02;;;14.00;99.90;;;;;;5057059;28;20453;-66
2022/09/20 10:29:05;;;;;;;110.18;104.45;;;13.90;99.90;;;;;;4979258;28;20408;-66
2022/09/20 10:32:02;;;;;;;215.52;203.88;;;14.00;99.90;;;;;;5071694;28;20496;-67
2022/09/20 10:34:43;;;;;;;163.98;155.18;;;14.10;99.90;;;;;;5061234;28;20387;-66
2022/09/20 10:37:33;;;;;;;172.00;162.40;;;14.30;99.90;;;;;;5059320;28;20483;-66
2022/09/20 10:40:24;;;;;;;94.10;88.78;;;14.60;99.90;;;;;;5061962;28;20464;-66
2022/09/20 10:43:16;;;;;;;194.88;184.05;;;14.90;99.90;;;;;;5064370;28;20412;-65
2022/09/20 10:46:02;;;;;;;214.75;202.63;;;15.00;99.90;;;;;;5068491;28;20417;-67
2022/09/20 10:48:52;;;;;;;145.93;138.07;;;14.80;99.90;;;;;;5069487;28;20453;-67
2022/09/20 10:51:43;;;;;;;116.93;110.43;;;15.10;99.90;;;;;;5069432;28;20407;-67
2022/09/20 10:54:31;;;;;;;99.10;93.72;;;15.00;99.90;;;;;;5068441;28;20475;-67
2022/09/20 10:57:24;;;;;;;82.38;77.63;;;15.10;99.90;;;;;;5066577;28;20380;-67
2022/09/20 11:00:02;;;;;;;57.40;54.03;;;15.40;99.90;;;;;;5036363;28;21009;-67
2022/09/20 11:02:27;;;;;;;14.90;13.70;;;15.70;99.90;;;;;;5066027;28;20453;-68
2022/09/20 11:04:57;;;;;;;30.23;28.13;;;15.80;99.90;;;;;;5066310;28;20743;-65
2022/09/20 11:07:32;;;;;;;28.73;26.85;;;16.00;99.90;;;;;;5065413;28;20562;-65
2022/09/20 11:10:03;;;;;;;75.95;71.43;;;16.20;99.90;;;;;;5064800;28;20494;-65
2022/09/20 11:12:53;;;;;;;161.57;152.15;;;16.40;99.90;;;;;;5059941;28;20460;-65
2022/09/20 11:15:38;;;;;;;24.83;23.23;;;16.50;99.90;;;;;;5062870;28;20403;-65
2022/09/20 11:18:27;;;;;;;9.20;8.50;;;16.80;99.90;;;;;;5067918;28;21026;-65
2022/09/20 11:20:59;;;;;;;19.02;17.73;;;17.00;99.90;;;;;;5067826;28;20533;-65
2022/09/20 11:23:35;;;;;;;19.20;17.80;;;16.90;99.90;;;;;;5067255;28;20524;-65
2022/09/20 11:26:10;;;;;;;38.45;35.85;;;16.70;99.90;;;;;;5067746;28;20379;-65
2022/09/20 11:28:46;;;;;;;41.75;38.95;;;16.50;99.90;;;;;;5065839;28;20815;-67
2022/09/20 11:31:24;;;;;;;19.85;18.48;;;16.30;99.90;;;;;;5065469;28;20411;-65
2022/09/20 11:34:19;;;;;;;15.37;14.27;;;16.60;99.90;;;;;;5064044;28;20384;-68
2022/09/20 11:37:35;;;;;;;8.85;8.05;;;17.20;99.90;;;;;;5062498;28;20387;-66
2022/09/20 11:40:14;;;;;;;16.05;14.75;;;17.70;99.90;;;;;;5067063;28;20386;-66
2022/09/20 11:42:40;;;;;;;22.13;20.60;;;17.70;99.90;;;;;;5067714;28;20814;-66
2022/09/20 11:45:11;;;;;;;38.20;35.87;;;17.90;99.90;;;;;;5069057;28;20395;-66
2022/09/20 11:47:44;;;;;;;39.10;36.80;;;18.00;99.90;;;;;;5068999;28;20391;-67
2022/09/20 11:50:37;;;;;;;108.03;101.63;;;18.40;99.90;;;;;;5067817;28;20388;-66
2022/09/20 11:53:40;;;;;;;85.57;80.90;;;18.00;99.90;;;;;;5065356;28;20390;-66
2022/09/20 11:56:19;;;;;;;67.78;64.15;;;17.80;99.90;;;;;;5066413;28;20371;-66
2022/09/20 11:58:47;;;;;;;89.27;84.27;;;17.90;99.90;;;;;;5063201;28;20929;-66
2022/09/20 12:01:34;;;;;;;104.93;99.22;;;18.00;99.90;;;;;;5063333;28;20415;-66
2022/09/20 12:04:10;;;;;;;124.35;117.35;;;17.90;99.90;;;;;;5064144;28;20387;-66
2022/09/20 12:06:39;;;;;;;68.93;65.22;;;18.30;99.90;;;;;;5066989;28;20446;-66
2022/09/20 12:09:21;;;;;;;73.50;69.68;;;18.60;99.90;;;;;;5067502;28;20380;-66
2022/09/20 12:11:47;;;;;;;91.07;86.05;;;18.90;99.90;;;;;;5068167;28;20403;-66
2022/09/20 12:14:21;;;;;;;106.47;100.53;;;19.40;99.90;;;;;;5069029;28;20403;-66
2022/09/20 12:16:48;;;;;;;51.10;48.40;;;19.60;99.90;;;;;;5066766;28;20576;-66
2022/09/20 12:19:35;;;;;;;44.67;42.37;;;19.70;99.90;;;;;;5059798;28;20550;-66
2022/09/20 12:22:02;;;;;;;56.65;53.42;;;20.00;99.90;;;;;;5058068;28;20707;-66
2022/09/20 12:24:30;;;;;;;90.93;85.65;;;20.00;99.90;;;;;;5056047;28;20388;-66
2022/09/20 12:27:01;;;;;;;135.95;128.50;;;19.60;99.90;;;;;;5055501;28;20586;-66
2022/09/20 12:29:31;;;;;;;119.25;112.75;;;19.40;99.90;;;;;;5053353;28;20562;-66
2022/09/20 12:32:00;;;;;;;165.05;155.95;;;19.60;99.90;;;;;;5054549;28;20735;-66
2022/09/20 12:34:26;;;;;;;116.70;110.20;;;20.00;99.90;;;;;;5056032;28;20465;-66
2022/09/20 12:36:54;;;;;;;69.25;65.53;;;20.10;99.90;;;;;;5054946;28;20473;-66
2022/09/20 12:39:30;;;;;;;74.18;70.07;;;20.20;99.90;;;;;;5055060;28;20695;-66
2022/09/20 12:42:23;;;;;;;60.28;57.17;;;20.70;99.90;;;;;;5056397;28;20452;-66
2022/09/20 12:44:49;;;;;;;20.77;19.50;;;21.10;99.90;;;;;;5058313;28;20398;-66
2022/09/20 12:47:18;;;;;;;5.95;5.43;;;20.80;99.90;;;;;;5060129;28;20448;-66
2022/09/20 12:55:53;;;;;;;9.95;9.20;;;21.10;99.90;;;;;;5060084;28;20658;-66
2022/09/20 12:58:32;;;;;;;24.40;22.75;;;20.60;99.90;;;;;;5058371;28;20383;-66
2022/09/20 13:01:04;;;;;;;22.70;21.35;;;19.70;99.90;;;;;;5057484;28;20387;-66
2022/09/20 13:03:35;;;;;;;33.77;31.37;;;19.40;99.90;;;;;;5060615;28;20388;-66
2022/09/20 13:06:11;;;;;;;27.50;26.00;;;19.30;99.90;;;;;;5059051;28;20729;-66
2022/09/20 13:08:56;;;;;;;27.88;26.38;;;19.40;99.90;;;;;;5058789;28;20383;-66
2022/09/20 13:11:39;;;;;;;37.70;35.47;;;20.20;99.90;;;;;;5063948;28;20879;-66
2022/09/20 13:14:05;;;;;;;29.77;28.08;;;20.70;99.90;;;;;;5069416;28;20433;-67
2022/09/20 13:16:36;;;;;;;36.50;34.50;;;21.00;99.90;;;;;;5069179;28;20413;-67
2022/09/20 13:19:06;;;;;;;53.53;50.37;;;21.60;99.90;;;;;;5069915;28;20380;-67
2022/09/20 13:21:39;;;;;;;28.40;26.83;;;21.30;99.90;;;;;;5070784;28;20434;-67
2022/09/20 13:24:06;;;;;;;40.28;37.88;;;21.40;99.90;;;;;;5069033;28;20384;-67
2022/09/20 13:26:39;;;;;;;46.17;43.47;;;21.90;99.90;;;;;;5067640;28;20390;-67
2022/09/20 13:29:09;;;;;;;41.22;38.67;;;21.40;99.90;;;;;;5067822;28;20469;-67
2022/09/20 13:31:35;;;;;;;19.33;18.23;;;21.20;99.90;;;;;;5067935;28;20410;-67
2022/09/20 13:34:17;;;;;;;25.73;24.17;;;21.20;99.90;;;;;;5066315;28;20388;-66
2022/09/20 13:36:44;;;;;;;26.40;24.80;;;21.40;99.90;;;;;;5065747;28;20375;-66
2022/09/20 13:39:40;;;;;;;16.92;15.93;;;21.20;99.90;;;;;;5066127;28;20388;-67
2022/09/20 13:42:15;;;;;;;16.73;15.70;;;21.80;99.90;;;;;;5064510;28;20383;-66
2022/09/20 13:44:42;;;;;;;14.60;13.80;;;22.20;99.90;;;;;;5063657;28;20392;-66